createdAt,value
2019-03-05T00:01:25.973Z,1.80
2019-03-05T00:03:55.418Z,1.33
2019-03-05T00:06:24.841Z,1.33
2019-03-05T00:08:54.325Z,1.00
2019-03-05T00:11:23.842Z,0.97
2019-03-05T00:13:53.219Z,0.90
2019-03-05T00:16:22.747Z,0.90
2019-03-05T00:18:52.196Z,0.80
2019-03-05T00:21:21.609Z,1.00
2019-03-05T00:23:56.170Z,0.90
2019-03-05T00:26:34.629Z,0.77
2019-03-05T00:29:10.308Z,0.90
2019-03-05T00:31:40.031Z,1.20
2019-03-05T00:35:08.605Z,1.10
2019-03-05T00:38:01.261Z,1.00
2019-03-05T00:40:41.957Z,1.10
2019-03-05T00:43:41.770Z,1.43
2019-03-05T00:46:26.817Z,1.30
2019-03-05T00:49:46.622Z,1.17
2019-03-05T00:52:33.159Z,1.23
2019-03-05T00:55:34.313Z,1.40
2019-03-05T00:58:46.352Z,1.63
2019-03-05T01:01:34.462Z,2.07
2019-03-05T01:04:41.281Z,2.13
2019-03-05T01:07:10.931Z,2.20
2019-03-05T01:09:40.346Z,2.50
2019-03-05T01:12:10.187Z,2.30
2019-03-05T01:14:39.756Z,3.07
2019-03-05T01:17:09.200Z,2.47
2019-03-05T01:19:38.604Z,3.27
2019-03-05T01:22:08.031Z,3.93
2019-03-05T01:24:37.460Z,3.63
2019-03-05T01:27:06.865Z,3.30
2019-03-05T01:29:36.325Z,3.30
2019-03-05T01:32:24.250Z,3.67
2019-03-05T01:35:19.016Z,3.23
2019-03-05T01:37:49.910Z,2.97
2019-03-05T01:40:40.040Z,2.37
2019-03-05T01:43:09.466Z,1.97
2019-03-05T01:45:38.903Z,2.60
2019-03-05T01:48:08.552Z,2.80
2019-03-05T01:50:37.985Z,2.73
2019-03-05T01:53:07.425Z,3.00
2019-03-05T01:55:36.881Z,3.73
2019-03-05T01:58:06.297Z,3.80
2019-03-05T02:00:36.058Z,4.40
2019-03-05T02:03:05.512Z,3.63
2019-03-05T02:05:34.920Z,3.30
2019-03-05T02:08:04.320Z,2.60
2019-03-05T02:10:33.784Z,2.30
2019-03-05T02:13:03.204Z,2.97
2019-03-05T02:15:32.621Z,3.10
2019-03-05T02:18:02.100Z,2.43
2019-03-05T02:20:31.559Z,2.93
2019-03-05T02:23:14.113Z,2.93
2019-03-05T02:26:17.037Z,2.67
2019-03-05T02:29:30.636Z,2.17
2019-03-05T02:32:49.214Z,2.20
2019-03-05T02:36:05.847Z,1.90
2019-03-05T02:39:06.533Z,2.10
2019-03-05T02:41:55.094Z,2.50
2019-03-05T02:45:11.791Z,2.20
2019-03-05T02:47:58.503Z,2.63
2019-03-05T02:51:04.450Z,2.30
2019-03-05T02:54:00.835Z,2.10
2019-03-05T02:56:47.582Z,2.50
2019-03-05T02:59:15.357Z,2.10
2019-03-05T03:02:12.837Z,2.37
2019-03-05T03:04:45.352Z,2.43
2019-03-05T03:07:14.765Z,2.23
2019-03-05T03:10:13.124Z,2.67
2019-03-05T03:12:43.320Z,2.50
2019-03-05T03:15:14.962Z,2.20
2019-03-05T03:17:44.595Z,2.63
2019-03-05T03:20:15.718Z,2.90
2019-03-05T03:22:45.267Z,2.50
2019-03-05T03:25:16.885Z,2.80
2019-03-05T03:27:46.323Z,3.40
2019-03-05T03:30:17.359Z,3.97
2019-03-05T03:32:46.774Z,2.93
2019-03-05T03:35:16.454Z,3.07
2019-03-05T03:37:45.947Z,2.63
2019-03-05T03:40:17.457Z,2.53
2019-03-05T03:42:46.874Z,2.90
2019-03-05T03:45:18.273Z,3.20
2019-03-05T03:47:48.050Z,2.60
2019-03-05T03:50:17.489Z,2.97
2019-03-05T03:52:46.953Z,2.53
2019-03-05T03:55:16.514Z,2.67
2019-03-05T03:57:45.942Z,3.60
2019-03-05T04:00:18.036Z,3.23
2019-03-05T04:02:47.663Z,2.93
2019-03-05T04:05:17.159Z,3.27
2019-03-05T04:07:46.588Z,3.40
2019-03-05T04:10:16.347Z,3.70
2019-03-05T04:12:45.839Z,3.50
2019-03-05T04:15:17.211Z,3.03
2019-03-05T04:17:46.895Z,3.37
2019-03-05T04:20:23.958Z,3.73
2019-03-05T04:22:53.418Z,3.20
2019-03-05T04:25:22.882Z,3.40
2019-03-05T04:27:52.627Z,3.33
2019-03-05T04:30:22.086Z,3.50
2019-03-05T04:32:51.553Z,3.17
2019-03-05T04:35:21.266Z,3.10
2019-03-05T04:37:52.216Z,3.57
2019-03-05T04:40:21.705Z,4.10
2019-03-05T04:42:51.181Z,4.00
2019-03-05T04:45:54.726Z,3.40
2019-03-05T04:48:24.290Z,4.13
2019-03-05T04:50:59.552Z,3.93
2019-03-05T04:53:29.018Z,3.47
2019-03-05T04:55:58.540Z,4.03
2019-03-05T04:58:28.140Z,4.37
2019-03-05T05:00:57.598Z,4.23
2019-03-05T05:03:27.098Z,3.67
2019-03-05T05:05:56.570Z,3.97
2019-03-05T05:08:26.078Z,4.17
2019-03-05T05:10:55.538Z,4.33
2019-03-05T05:13:25.045Z,4.40
2019-03-05T05:15:54.577Z,3.93
2019-03-05T05:18:24.038Z,4.80
2019-03-05T05:20:53.517Z,4.27
2019-03-05T05:23:23.026Z,4.17
2019-03-05T05:25:52.478Z,4.07
2019-03-05T05:28:21.980Z,4.30
2019-03-05T05:30:51.452Z,4.13
2019-03-05T05:33:20.909Z,4.03
2019-03-05T05:35:50.580Z,4.30
2019-03-05T05:38:20.018Z,4.87
2019-03-05T05:40:49.505Z,4.20
2019-03-05T05:43:24.753Z,3.60
2019-03-05T05:45:54.333Z,4.63
2019-03-05T05:48:23.799Z,4.60
2019-03-05T05:50:53.256Z,4.10
2019-03-05T05:53:22.764Z,5.10
2019-03-05T05:55:52.307Z,4.20
2019-03-05T05:58:21.781Z,4.73
2019-03-05T06:00:53.573Z,5.60
2019-03-05T06:03:23.031Z,4.57
2019-03-05T06:05:52.549Z,4.70
2019-03-05T06:08:22.120Z,4.83
2019-03-05T06:10:52.969Z,4.33
2019-03-05T06:13:22.733Z,4.20
2019-03-05T06:15:52.252Z,5.57
2019-03-05T06:18:21.861Z,4.83
2019-03-05T06:20:51.362Z,4.53
2019-03-05T06:23:20.829Z,4.17
2019-03-05T06:25:50.509Z,5.10
2019-03-05T06:28:19.982Z,4.87
2019-03-05T06:30:49.469Z,5.13
2019-03-05T06:33:18.961Z,5.20
2019-03-05T06:35:49.550Z,5.33
2019-03-05T06:38:19.020Z,5.70
2019-03-05T06:40:48.584Z,4.43
2019-03-05T06:43:18.021Z,5.37
2019-03-05T06:45:47.453Z,5.43
2019-03-05T06:48:16.866Z,5.53
2019-03-05T06:50:46.359Z,5.07
2019-03-05T06:53:15.847Z,4.93
2019-03-05T06:55:45.322Z,5.27
2019-03-05T06:58:14.813Z,5.73
2019-03-05T07:00:44.475Z,5.70
2019-03-05T07:03:13.885Z,5.03
2019-03-05T07:06:19.297Z,5.40
2019-03-05T07:08:53.927Z,5.13
2019-03-05T07:11:46.147Z,5.40
2019-03-05T07:14:21.342Z,5.07
2019-03-05T07:17:03.729Z,5.53
2019-03-05T07:19:59.079Z,5.10
2019-03-05T07:22:57.019Z,5.60
2019-03-05T07:25:26.449Z,5.23
2019-03-05T07:27:59.618Z,5.20
2019-03-05T07:30:29.322Z,5.60
2019-03-05T07:33:00.302Z,5.00
2019-03-05T07:35:32.453Z,5.53
2019-03-05T07:38:01.928Z,5.13
2019-03-05T07:40:31.441Z,5.13
2019-03-05T07:43:00.903Z,5.90
2019-03-05T07:45:30.438Z,4.77
2019-03-05T07:47:59.929Z,5.30
2019-03-05T07:50:29.402Z,4.53
2019-03-05T07:52:59.322Z,5.33
2019-03-05T07:55:28.771Z,5.33
2019-03-05T07:57:58.208Z,4.80
2019-03-05T08:00:27.763Z,4.10
2019-03-05T08:02:57.207Z,4.60
2019-03-05T08:05:26.661Z,4.10
2019-03-05T08:07:56.471Z,4.50
2019-03-05T08:10:31.144Z,4.00
2019-03-05T08:13:39.015Z,3.80
2019-03-05T08:16:19.620Z,3.97
2019-03-05T08:18:49.120Z,3.93
2019-03-05T08:21:19.644Z,3.30
2019-03-05T08:23:51.568Z,4.03
2019-03-05T08:26:21.084Z,3.73
2019-03-05T08:28:50.960Z,3.80
2019-03-05T08:31:20.478Z,3.93
2019-03-05T08:33:50.037Z,3.50
2019-03-05T08:36:19.853Z,3.60
2019-03-05T08:38:49.340Z,3.27
2019-03-05T08:41:18.776Z,3.40
2019-03-05T08:43:48.208Z,3.17
2019-03-05T08:46:17.688Z,3.40
2019-03-05T08:48:47.260Z,3.93
2019-03-05T08:51:16.688Z,3.67
2019-03-05T08:53:49.460Z,3.17
2019-03-05T08:56:17.271Z,3.47
2019-03-05T08:58:46.720Z,3.20
2019-03-05T09:01:16.549Z,3.80
2019-03-05T09:03:45.999Z,3.33
2019-03-05T09:06:15.460Z,3.20
2019-03-05T09:08:45.021Z,3.50
2019-03-05T09:11:14.453Z,3.10
2019-03-05T09:13:43.871Z,3.07
2019-03-05T09:16:13.415Z,3.40
2019-03-05T09:18:42.841Z,3.10
2019-03-05T09:21:12.404Z,3.40
2019-03-05T09:23:41.885Z,3.57
2019-03-05T09:26:11.337Z,3.07
2019-03-05T09:28:40.750Z,2.87
2019-03-05T09:31:10.218Z,2.60
2019-03-05T09:33:39.672Z,3.50
2019-03-05T09:36:09.486Z,3.17
2019-03-05T09:38:38.970Z,3.13
2019-03-05T09:41:08.406Z,3.23
2019-03-05T09:43:37.837Z,3.20
2019-03-05T09:46:07.345Z,3.03
2019-03-05T09:48:36.751Z,3.07
2019-03-05T09:51:06.198Z,3.30
2019-03-05T09:53:35.865Z,3.17
2019-03-05T09:56:06.595Z,2.77
2019-03-05T09:58:37.006Z,3.20
2019-03-05T10:01:06.694Z,3.00
2019-03-05T10:03:36.162Z,3.03
2019-03-05T10:06:06.169Z,3.03
2019-03-05T10:08:35.657Z,3.20
2019-03-05T10:11:05.317Z,3.23
2019-03-05T10:13:34.861Z,3.00
2019-03-05T10:16:04.653Z,3.00
2019-03-05T10:18:34.121Z,3.47
2019-03-05T10:21:03.951Z,3.03
2019-03-05T10:23:33.433Z,3.13
2019-03-05T10:26:02.866Z,3.43
2019-03-05T10:28:33.898Z,3.30
2019-03-05T10:31:03.597Z,3.93
2019-03-05T10:33:33.076Z,11.67
2019-03-05T10:36:02.599Z,4.47
2019-03-05T10:38:32.158Z,4.60
2019-03-05T10:41:01.906Z,3.73
2019-03-05T10:43:31.564Z,4.53
2019-03-05T10:46:01.388Z,4.93
2019-03-05T10:48:30.807Z,4.40
2019-03-05T10:51:00.244Z,6.10
2019-03-05T10:53:30.116Z,4.70
2019-03-05T10:55:59.578Z,4.60
2019-03-05T10:58:33.718Z,4.20
2019-03-05T11:01:00.545Z,3.87
2019-03-05T11:03:30.485Z,4.37
2019-03-05T11:06:00.256Z,3.50
2019-03-05T11:08:29.987Z,4.40
2019-03-05T11:11:01.132Z,3.83
2019-03-05T11:13:30.556Z,4.20
2019-03-05T11:16:00.017Z,4.13
2019-03-05T11:18:30.130Z,3.93
2019-03-05T11:21:00.072Z,4.67
2019-03-05T11:23:29.504Z,3.97
2019-03-05T11:25:58.924Z,4.10
2019-03-05T11:28:28.702Z,3.80
2019-03-05T11:30:58.186Z,3.57
2019-03-05T11:33:27.599Z,4.27
2019-03-05T11:35:57.173Z,3.80
2019-03-05T11:38:26.672Z,3.67
2019-03-05T11:40:56.124Z,4.20
2019-03-05T11:43:25.568Z,4.17
2019-03-05T11:45:55.560Z,4.43
2019-03-05T11:48:25.007Z,3.40
2019-03-05T11:50:54.826Z,4.00
2019-03-05T11:53:24.346Z,4.70
2019-03-05T11:55:53.849Z,4.20
2019-03-05T11:58:23.406Z,4.00
2019-03-05T12:01:24.232Z,3.43
2019-03-05T12:03:53.974Z,3.40
2019-03-05T12:06:23.432Z,4.23
2019-03-05T12:08:52.860Z,3.83
2019-03-05T12:11:22.343Z,4.77
2019-03-05T12:13:51.793Z,3.83
2019-03-05T12:16:21.233Z,4.53
2019-03-05T12:18:50.712Z,4.03
2019-03-05T12:21:21.207Z,4.50
2019-03-05T12:23:50.717Z,4.03
2019-03-05T12:26:20.153Z,4.10
2019-03-05T12:28:49.574Z,4.83
2019-03-05T12:31:19.041Z,5.23
2019-03-05T12:33:48.512Z,5.07
2019-03-05T12:36:17.949Z,5.93
2019-03-05T12:38:47.399Z,5.43
2019-03-05T12:41:16.979Z,4.50
2019-03-05T12:43:46.401Z,4.50
2019-03-05T12:46:15.829Z,4.40
2019-03-05T12:48:45.289Z,5.03
2019-03-05T12:51:14.837Z,4.00
2019-03-05T12:53:44.269Z,4.37
2019-03-05T12:56:23.499Z,4.47
2019-03-05T12:58:46.514Z,4.93
2019-03-05T13:01:16.047Z,4.20
2019-03-05T13:03:45.493Z,4.50
2019-03-05T13:06:14.954Z,5.47
2019-03-05T13:08:44.401Z,4.03
2019-03-05T13:11:14.520Z,4.80
2019-03-05T13:13:47.541Z,4.27
2019-03-05T13:16:15.154Z,4.57
2019-03-05T13:18:44.610Z,4.70
2019-03-05T13:21:14.027Z,5.63
2019-03-05T13:23:43.590Z,5.10
2019-03-05T13:26:13.040Z,5.40
2019-03-05T13:28:42.492Z,5.27
2019-03-05T13:31:11.998Z,5.67
2019-03-05T13:33:42.144Z,5.33
2019-03-05T13:36:12.423Z,5.40
2019-03-05T13:38:45.179Z,6.10
2019-03-05T13:41:15.743Z,6.00
2019-03-05T13:43:45.204Z,5.40
2019-03-05T13:46:14.808Z,5.73
2019-03-05T13:49:17.986Z,5.40
2019-03-05T13:52:22.485Z,5.90
2019-03-05T13:55:40.444Z,6.03
2019-03-05T13:58:31.993Z,4.87
2019-03-05T14:01:01.455Z,5.30
2019-03-05T14:03:41.937Z,4.47
2019-03-05T14:06:38.829Z,4.87
2019-03-05T14:09:14.023Z,5.17
2019-03-05T14:11:44.688Z,5.13
2019-03-05T14:14:18.454Z,4.53
2019-03-05T14:16:49.909Z,5.07
2019-03-05T14:19:19.449Z,3.90
2019-03-05T14:21:48.944Z,3.93
2019-03-05T14:24:18.367Z,4.07
2019-03-05T14:26:47.798Z,4.40
2019-03-05T14:29:17.247Z,3.90
2019-03-05T14:31:46.721Z,4.67
2019-03-05T14:34:16.178Z,4.63
2019-03-05T14:36:45.602Z,4.50
2019-03-05T14:39:24.659Z,4.07
2019-03-05T14:41:54.484Z,4.33
2019-03-05T14:44:24.186Z,5.60
2019-03-05T14:46:58.535Z,5.30
2019-03-05T14:49:28.349Z,4.23
2019-03-05T14:51:57.892Z,4.40
2019-03-05T14:54:28.079Z,3.60
2019-03-05T14:56:57.472Z,3.67
2019-03-05T14:59:26.940Z,4.60
2019-03-05T15:01:56.519Z,4.77
2019-03-05T15:04:26.266Z,3.60
2019-03-05T15:06:55.767Z,4.60
2019-03-05T15:09:25.253Z,5.73
2019-03-05T15:11:54.700Z,4.80
2019-03-05T15:14:24.224Z,3.87
2019-03-05T15:16:53.669Z,3.70
2019-03-05T15:19:23.078Z,6.07
2019-03-05T15:21:52.555Z,4.87
2019-03-05T15:24:22.006Z,4.80
2019-03-05T15:26:51.479Z,6.03
2019-03-05T15:29:20.915Z,4.00
2019-03-05T15:31:50.334Z,4.67
2019-03-05T15:34:20.126Z,6.77
2019-03-05T15:36:52.078Z,7.80
2019-03-05T15:39:20.752Z,7.23
2019-03-05T15:41:50.231Z,7.20
2019-03-05T15:44:19.740Z,6.07
2019-03-05T15:46:49.283Z,8.73
2019-03-05T15:49:18.694Z,9.20
2019-03-05T15:51:48.355Z,9.67
2019-03-05T15:54:17.723Z,7.33
2019-03-05T15:56:47.341Z,7.90
2019-03-05T15:59:16.824Z,6.17
2019-03-05T16:01:46.391Z,4.90
2019-03-05T16:04:15.810Z,6.33
2019-03-05T16:06:45.332Z,8.03
2019-03-05T16:09:19.975Z,5.43
2019-03-05T16:11:49.427Z,6.50
2019-03-05T16:14:18.840Z,8.10
2019-03-05T16:16:51.735Z,8.03
2019-03-05T16:19:19.402Z,7.57
2019-03-05T16:21:48.867Z,9.03
2019-03-05T16:24:18.304Z,8.43
2019-03-05T16:26:47.813Z,7.83
2019-03-05T16:29:20.143Z,7.80
2019-03-05T16:32:10.110Z,7.47
2019-03-05T16:34:52.078Z,6.17
2019-03-05T16:37:34.155Z,5.80
2019-03-05T16:40:28.606Z,6.27
2019-03-05T16:43:14.601Z,4.80
2019-03-05T16:45:57.464Z,4.10
2019-03-05T16:48:48.735Z,3.87
2019-03-05T16:51:32.307Z,5.57
2019-03-05T16:54:19.856Z,5.30
2019-03-05T16:56:56.790Z,3.43
2019-03-05T17:00:03.628Z,4.60
2019-03-05T17:02:45.779Z,5.47
2019-03-05T17:05:34.094Z,4.90
2019-03-05T17:08:28.338Z,4.47
2019-03-05T17:11:05.351Z,4.20
2019-03-05T17:13:34.840Z,6.53
2019-03-05T17:16:04.314Z,6.87
2019-03-05T17:18:33.958Z,8.80
2019-03-05T17:21:03.801Z,9.00
2019-03-05T17:23:33.237Z,7.47
2019-03-05T17:26:02.698Z,5.20
2019-03-05T17:28:32.162Z,6.57
2019-03-05T17:31:01.965Z,6.40
2019-03-05T17:33:31.440Z,6.73
2019-03-05T17:36:00.896Z,7.23
2019-03-05T17:38:30.328Z,7.77
2019-03-05T17:40:59.837Z,6.87
2019-03-05T17:43:29.399Z,7.57
2019-03-05T17:45:58.893Z,6.90
2019-03-05T17:48:28.593Z,6.63
2019-03-05T17:50:58.168Z,6.60
2019-03-05T17:53:27.690Z,6.70
2019-03-05T17:55:57.148Z,6.67
2019-03-05T17:58:26.636Z,5.97
2019-03-05T18:00:57.569Z,6.40
2019-03-05T18:03:27.139Z,6.83
2019-03-05T18:05:56.768Z,6.97
2019-03-05T18:08:26.270Z,6.37
2019-03-05T18:10:55.829Z,8.13
2019-03-05T18:13:25.314Z,9.07
2019-03-05T18:15:54.769Z,11.23
2019-03-05T18:18:24.261Z,12.80
2019-03-05T18:20:53.738Z,11.07
2019-03-05T18:23:23.201Z,9.33
2019-03-05T18:25:52.781Z,10.63
2019-03-05T18:28:22.284Z,9.17
2019-03-05T18:30:51.792Z,10.60
2019-03-05T18:33:21.297Z,9.47
2019-03-05T18:35:50.806Z,9.27
2019-03-05T18:38:20.303Z,10.57
2019-03-05T18:40:49.964Z,9.80
2019-03-05T18:43:19.526Z,10.90
2019-03-05T18:45:48.985Z,14.37
2019-03-05T18:48:18.453Z,10.57
2019-03-05T18:50:47.980Z,9.83
2019-03-05T18:53:17.703Z,10.90
2019-03-05T18:55:47.248Z,9.00
2019-03-05T18:58:16.756Z,7.93
2019-03-05T19:00:46.341Z,10.00
2019-03-05T19:03:15.985Z,9.53
2019-03-05T19:05:45.465Z,10.53
2019-03-05T19:08:14.989Z,8.97
2019-03-05T19:10:44.485Z,10.40
2019-03-05T19:13:13.955Z,10.20
2019-03-05T19:15:43.465Z,9.27
2019-03-05T19:18:13.061Z,9.63
2019-03-05T19:20:43.497Z,8.63
2019-03-05T19:23:13.068Z,8.27
2019-03-05T19:25:42.605Z,8.73
2019-03-05T19:28:12.421Z,8.80
2019-03-05T19:30:41.997Z,7.40
2019-03-05T19:33:11.454Z,6.77
2019-03-05T19:35:40.962Z,8.50
2019-03-05T19:38:10.541Z,7.83
2019-03-05T19:40:40.057Z,7.90
2019-03-05T19:43:09.615Z,7.20
2019-03-05T19:45:39.109Z,7.93
2019-03-05T19:48:08.618Z,6.93
2019-03-05T19:50:38.109Z,6.83
2019-03-05T19:53:07.651Z,6.87
2019-03-05T19:55:37.469Z,6.00
2019-03-05T19:58:11.229Z,6.70
2019-03-05T20:00:50.042Z,7.50
2019-03-05T20:03:19.576Z,6.17
2019-03-05T20:05:49.179Z,6.83
2019-03-05T20:08:18.905Z,6.47
2019-03-05T20:10:48.526Z,7.37
2019-03-05T20:13:18.224Z,7.37
2019-03-05T20:15:47.702Z,5.90
2019-03-05T20:18:17.194Z,6.03
2019-03-05T20:20:46.905Z,6.47
2019-03-05T20:23:16.362Z,6.70
2019-03-05T20:25:45.937Z,7.03
2019-03-05T20:28:15.544Z,6.70
2019-03-05T20:30:45.033Z,7.10
2019-03-05T20:33:14.516Z,7.83
2019-03-05T20:35:44.162Z,6.47
2019-03-05T20:38:13.779Z,6.20
2019-03-05T20:40:43.296Z,7.03
2019-03-05T20:43:12.806Z,6.63
2019-03-05T20:45:42.390Z,7.10
2019-03-05T20:48:11.886Z,7.37
2019-03-05T20:50:41.383Z,7.67
2019-03-05T20:53:11.047Z,7.83
2019-03-05T20:55:40.529Z,7.97
2019-03-05T20:58:10.829Z,7.27
2019-03-05T21:00:40.682Z,7.30
2019-03-05T21:03:10.280Z,7.60
2019-03-05T21:05:41.817Z,10.17
2019-03-05T21:08:11.270Z,14.53
2019-03-05T21:10:40.859Z,11.80
2019-03-05T21:13:10.665Z,14.23
2019-03-05T21:15:40.136Z,13.33
2019-03-05T21:18:09.648Z,10.33
2019-03-05T21:20:39.344Z,10.53
2019-03-05T21:23:08.874Z,8.97
2019-03-05T21:25:38.384Z,8.63
2019-03-05T21:28:07.909Z,10.37
2019-03-05T21:30:37.596Z,9.87
2019-03-05T21:33:07.236Z,7.57
2019-03-05T21:35:36.763Z,7.90
2019-03-05T21:38:06.284Z,8.07
2019-03-05T21:40:35.854Z,8.07
2019-03-05T21:43:05.389Z,7.27
2019-03-05T21:45:36.322Z,8.57
2019-03-05T21:48:06.397Z,7.97
2019-03-05T21:50:36.238Z,7.20
2019-03-05T21:53:06.076Z,7.27
2019-03-05T21:55:35.622Z,7.53
2019-03-05T21:58:05.117Z,8.20
2019-03-05T22:00:34.638Z,7.63
2019-03-05T22:03:04.980Z,7.93
2019-03-05T22:05:34.476Z,8.73
2019-03-05T22:08:04.046Z,8.03
2019-03-05T22:10:33.852Z,7.27
2019-03-05T22:13:03.698Z,6.80
2019-03-05T22:15:33.317Z,7.10
2019-03-05T22:18:02.999Z,7.73
2019-03-05T22:20:32.509Z,7.57
2019-03-05T22:23:02.437Z,7.17
2019-03-05T22:25:31.919Z,7.27
2019-03-05T22:28:01.747Z,7.37
2019-03-05T22:30:31.679Z,7.00
2019-03-05T22:33:01.222Z,7.57
2019-03-05T22:35:30.761Z,7.23
2019-03-05T22:38:00.214Z,7.37
2019-03-05T22:40:29.679Z,7.60
2019-03-05T22:42:59.233Z,7.43
2019-03-05T22:45:28.746Z,8.00
2019-03-05T22:47:58.508Z,7.23
2019-03-05T22:50:28.031Z,7.60
2019-03-05T22:52:57.501Z,7.40
2019-03-05T22:55:27.259Z,7.37
2019-03-05T22:57:57.511Z,7.83
2019-03-05T23:01:05.486Z,8.23
2019-03-05T23:03:35.392Z,7.43
2019-03-05T23:06:06.390Z,8.43
2019-03-05T23:08:35.837Z,8.13
2019-03-05T23:11:05.707Z,8.70
2019-03-05T23:13:35.893Z,8.73
2019-03-05T23:16:06.034Z,7.93
2019-03-05T23:18:35.620Z,8.03
2019-03-05T23:21:05.226Z,8.50
2019-03-05T23:23:34.797Z,9.70
2019-03-05T23:26:04.598Z,9.83
2019-03-05T23:28:34.039Z,8.57
2019-03-05T23:31:03.488Z,9.30
2019-03-05T23:33:32.933Z,9.10
2019-03-05T23:36:02.514Z,7.50
2019-03-05T23:38:32.277Z,8.37
2019-03-05T23:41:01.837Z,8.37
2019-03-05T23:43:31.317Z,8.10
2019-03-05T23:46:00.834Z,8.20
2019-03-05T23:48:30.363Z,9.17
2019-03-05T23:51:00.207Z,10.70
2019-03-05T23:53:29.709Z,10.13
2019-03-05T23:55:59.305Z,10.53
2019-03-05T23:58:28.787Z,10.97
